sensor_id;sensor_type;location;lat;lon;timestamp;pressure;altitude;pressure_sealevel;temperature;humidity
59272;BME280;45043;51.068;7.026;2022-07-23T00:00:17;100627.38;;;13.70;66.70
59272;BME280;45043;51.068;7.026;2022-07-23T00:03:18;100629.03;;;13.71;66.92
59272;BME280;45043;51.068;7.026;2022-07-23T00:06:18;100622.03;;;13.70;67.16
59272;BME280;45043;51.068;7.026;2022-07-23T00:09:19;100630.22;;;13.68;67.28
59272;BME280;45043;51.068;7.026;2022-07-23T00:12:20;100628.38;;;13.69;67.35
59272;BME280;45043;51.068;7.026;2022-07-23T00:15:21;100615.50;;;13.59;67.19
59272;BME280;45043;51.068;7.026;2022-07-23T00:18:22;100635.22;;;13.58;67.46
59272;BME280;45043;51.068;7.026;2022-07-23T00:21:22;100632.16;;;13.54;67.73
59272;BME280;45043;51.068;7.026;2022-07-23T00:24:23;100625.78;;;13.55;67.96
59272;BME280;45043;51.068;7.026;2022-07-23T00:27:23;100629.03;;;13.57;68.65
59272;BME280;45043;51.068;7.026;2022-07-23T00:30:23;100637.44;;;13.68;68.04
59272;BME280;45043;51.068;7.026;2022-07-23T00:33:24;100626.97;;;13.73;67.38
59272;BME280;45043;51.068;7.026;2022-07-23T00:36:24;100629.03;;;13.71;67.40
59272;BME280;45043;51.068;7.026;2022-07-23T00:39:25;100629.38;;;13.81;67.38
59272;BME280;45043;51.068;7.026;2022-07-23T00:42:25;100626.06;;;13.85;67.11
59272;BME280;45043;51.068;7.026;2022-07-23T00:45:26;100626.03;;;13.92;67.22
59272;BME280;45043;51.068;7.026;2022-07-23T00:48:27;100632.19;;;13.93;66.99
59272;BME280;45043;51.068;7.026;2022-07-23T00:51:27;100641.00;;;14.00;67.22
59272;BME280;45043;51.068;7.026;2022-07-23T00:54:29;100634.97;;;14.11;66.87
59272;BME280;45043;51.068;7.026;2022-07-23T00:57:29;100629.59;;;14.11;67.20
59272;BME280;45043;51.068;7.026;2022-07-23T01:00:30;100618.69;;;14.13;67.14
59272;BME280;45043;51.068;7.026;2022-07-23T01:03:30;100603.88;;;14.17;67.39
59272;BME280;45043;51.068;7.026;2022-07-23T01:06:35;100598.31;;;14.18;67.27
59272;BME280;45043;51.068;7.026;2022-07-23T01:09:37;100598.09;;;14.20;67.05
59272;BME280;45043;51.068;7.026;2022-07-23T01:12:38;100592.22;;;14.11;66.89
59272;BME280;45043;51.068;7.026;2022-07-23T01:15:39;100592.97;;;14.18;66.84
59272;BME280;45043;51.068;7.026;2022-07-23T01:18:39;100601.16;;;14.23;66.45
59272;BME280;45043;51.068;7.026;2022-07-23T01:21:42;100609.41;;;14.22;66.72
59272;BME280;45043;51.068;7.026;2022-07-23T01:24:44;100620.09;;;14.22;66.51
59272;BME280;45043;51.068;7.026;2022-07-23T01:27:45;100618.00;;;14.24;66.48
59272;BME280;45043;51.068;7.026;2022-07-23T01:30:45;100615.13;;;14.25;66.46
59272;BME280;45043;51.068;7.026;2022-07-23T01:33:46;100593.94;;;14.24;66.42
59272;BME280;45043;51.068;7.026;2022-07-23T01:36:47;100613.41;;;14.31;66.49
59272;BME280;45043;51.068;7.026;2022-07-23T01:39:50;100613.00;;;14.34;66.01
59272;BME280;45043;51.068;7.026;2022-07-23T01:42:50;100616.28;;;14.36;66.21
59272;BME280;45043;51.068;7.026;2022-07-23T01:45:51;100607.44;;;14.36;66.45
59272;BME280;45043;51.068;7.026;2022-07-23T01:48:52;100606.84;;;14.33;66.07
59272;BME280;45043;51.068;7.026;2022-07-23T01:52:10;100599.47;;;14.29;66.03
59272;BME280;45043;51.068;7.026;2022-07-23T01:55:20;100586.97;;;14.23;65.88
59272;BME280;45043;51.068;7.026;2022-07-23T01:58:23;100596.63;;;14.24;66.12
59272;BME280;45043;51.068;7.026;2022-07-23T02:01:23;100589.50;;;14.18;65.71
59272;BME280;45043;51.068;7.026;2022-07-23T02:04:25;100599.38;;;14.17;65.36
59272;BME280;45043;51.068;7.026;2022-07-23T02:07:25;100590.78;;;14.08;65.94
59272;BME280;45043;51.068;7.026;2022-07-23T02:10:26;100595.94;;;14.10;65.58
59272;BME280;45043;51.068;7.026;2022-07-23T02:13:27;100595.47;;;14.13;65.77
59272;BME280;45043;51.068;7.026;2022-07-23T02:16:28;100592.59;;;14.15;66.06
59272;BME280;45043;51.068;7.026;2022-07-23T02:19:34;100578.03;;;14.10;65.94
59272;BME280;45043;51.068;7.026;2022-07-23T02:22:36;100594.84;;;14.18;65.86
59272;BME280;45043;51.068;7.026;2022-07-23T02:25:36;100597.91;;;14.21;65.90
59272;BME280;45043;51.068;7.026;2022-07-23T02:28:37;100590.06;;;14.20;65.28
59272;BME280;45043;51.068;7.026;2022-07-23T02:31:37;100584.41;;;14.09;65.44
59272;BME280;45043;51.068;7.026;2022-07-23T02:34:39;100586.06;;;14.10;64.71
59272;BME280;45043;51.068;7.026;2022-07-23T02:37:40;100591.78;;;14.14;64.85
59272;BME280;45043;51.068;7.026;2022-07-23T02:40:41;100590.75;;;14.15;64.77
59272;BME280;45043;51.068;7.026;2022-07-23T02:43:42;100588.72;;;14.10;65.29
59272;BME280;45043;51.068;7.026;2022-07-23T02:46:42;100587.28;;;14.08;65.16
59272;BME280;45043;51.068;7.026;2022-07-23T02:49:43;100603.72;;;14.12;64.88
59272;BME280;45043;51.068;7.026;2022-07-23T02:52:43;100602.28;;;14.09;64.75
59272;BME280;45043;51.068;7.026;2022-07-23T02:55:43;100604.13;;;14.08;65.28
59272;BME280;45043;51.068;7.026;2022-07-23T02:58:44;100597.97;;;14.08;65.36
59272;BME280;45043;51.068;7.026;2022-07-23T03:01:44;100595.94;;;14.10;65.29
59272;BME280;45043;51.068;7.026;2022-07-23T03:04:45;100595.75;;;14.05;65.56
59272;BME280;45043;51.068;7.026;2022-07-23T03:07:46;100599.22;;;14.05;65.44
59272;BME280;45043;51.068;7.026;2022-07-23T03:10:46;100595.75;;;14.05;65.78
59272;BME280;45043;51.068;7.026;2022-07-23T03:13:47;100592.25;;;14.04;65.83
59272;BME280;45043;51.068;7.026;2022-07-23T03:16:47;100597.16;;;14.07;65.56
59272;BME280;45043;51.068;7.026;2022-07-23T03:19:49;100593.28;;;14.03;65.60
59272;BME280;45043;51.068;7.026;2022-07-23T03:22:50;100596.56;;;14.05;65.69
59272;BME280;45043;51.068;7.026;2022-07-23T03:25:51;100597.59;;;14.04;65.91
59272;BME280;45043;51.068;7.026;2022-07-23T03:28:52;100595.97;;;14.03;65.85
59272;BME280;45043;51.068;7.026;2022-07-23T03:31:53;100593.28;;;14.03;65.80
59272;BME280;45043;51.068;7.026;2022-07-23T03:34:53;100596.41;;;14.00;66.17
59272;BME280;45043;51.068;7.026;2022-07-23T03:37:54;100594.19;;;13.91;65.87
59272;BME280;45043;51.068;7.026;2022-07-23T03:40:55;100598.28;;;13.93;66.11
59272;BME280;45043;51.068;7.026;2022-07-23T03:43:55;100609.22;;;13.85;66.23
59272;BME280;45043;51.068;7.026;2022-07-23T03:46:55;100604.75;;;13.79;66.36
59272;BME280;45043;51.068;7.026;2022-07-23T03:49:56;100601.47;;;13.70;66.47
59272;BME280;45043;51.068;7.026;2022-07-23T03:52:57;100593.34;;;13.58;66.62
59272;BME280;45043;51.068;7.026;2022-07-23T03:55:58;100602.81;;;13.54;66.70
59272;BME280;45043;51.068;7.026;2022-07-23T03:58:59;100598.72;;;13.45;66.82
59272;BME280;45043;51.068;7.026;2022-07-23T04:01:59;100605.91;;;13.51;66.92
59272;BME280;45043;51.068;7.026;2022-07-23T04:05:00;100603.63;;;13.55;66.81
59272;BME280;45043;51.068;7.026;2022-07-23T04:08:01;100601.34;;;13.58;67.05
59272;BME280;45043;51.068;7.026;2022-07-23T04:11:01;100603.97;;;13.65;66.65
59272;BME280;45043;51.068;7.026;2022-07-23T04:14:02;100595.75;;;13.67;66.85
59272;BME280;45043;51.068;7.026;2022-07-23T04:17:03;100603.97;;;13.65;66.38
59272;BME280;45043;51.068;7.026;2022-07-23T04:20:05;100606.44;;;13.73;66.24
59272;BME280;45043;51.068;7.026;2022-07-23T04:23:12;100617.03;;;13.80;66.06
59272;BME280;45043;51.068;7.026;2022-07-23T04:26:14;100609.63;;;13.89;65.98
59272;BME280;45043;51.068;7.026;2022-07-23T04:29:16;100614.97;;;13.89;66.04
59272;BME280;45043;51.068;7.026;2022-07-23T04:32:16;100614.75;;;13.90;65.51
59272;BME280;45043;51.068;7.026;2022-07-23T04:35:16;100611.47;;;13.88;65.19
59272;BME280;45043;51.068;7.026;2022-07-23T04:38:18;100624.19;;;13.93;65.42
59272;BME280;45043;51.068;7.026;2022-07-23T04:41:19;100632.41;;;13.91;65.51
59272;BME280;45043;51.068;7.026;2022-07-23T04:44:20;100636.13;;;13.83;65.57
59272;BME280;45043;51.068;7.026;2022-07-23T04:47:22;100632.31;;;13.73;65.24
59272;BME280;45043;51.068;7.026;2022-07-23T04:50:22;100635.19;;;13.65;65.84
59272;BME280;45043;51.068;7.026;2022-07-23T04:53:26;100643.44;;;13.56;65.68
59272;BME280;45043;51.068;7.026;2022-07-23T04:56:33;100657.56;;;13.63;65.66
59272;BME280;45043;51.068;7.026;2022-07-23T04:59:34;100650.19;;;13.66;65.57
59272;BME280;45043;51.068;7.026;2022-07-23T05:02:38;100657.75;;;13.69;65.82
59272;BME280;45043;51.068;7.026;2022-07-23T05:05:38;100660.03;;;13.72;65.95
59272;BME280;45043;51.068;7.026;2022-07-23T05:08:47;100658.56;;;13.76;65.50
59272;BME280;45043;51.068;7.026;2022-07-23T05:11:48;100665.09;;;13.86;65.36
59272;BME280;45043;51.068;7.026;2022-07-23T05:14:49;100669.34;;;13.94;65.05
59272;BME280;45043;51.068;7.026;2022-07-23T05:17:49;100679.81;;;14.02;65.49
59272;BME280;45043;51.068;7.026;2022-07-23T05:20:51;100681.59;;;14.08;65.17
59272;BME280;45043;51.068;7.026;2022-07-23T05:23:54;100683.44;;;14.15;65.01
59272;BME280;45043;51.068;7.026;2022-07-23T05:26:55;100688.34;;;14.18;65.18
59272;BME280;45043;51.068;7.026;2022-07-23T05:29:56;100687.84;;;14.27;64.90
59272;BME280;45043;51.068;7.026;2022-07-23T05:32:56;100682.31;;;14.29;64.87
59272;BME280;45043;51.068;7.026;2022-07-23T05:36:04;100689.03;;;14.38;64.62
59272;BME280;45043;51.068;7.026;2022-07-23T05:39:06;100691.09;;;14.36;64.79
59272;BME280;45043;51.068;7.026;2022-07-23T05:42:10;100694.38;;;14.38;64.85
59272;BME280;45043;51.068;7.026;2022-07-23T05:45:10;100688.59;;;14.41;64.83
59272;BME280;45043;51.068;7.026;2022-07-23T05:48:15;100687.75;;;14.47;64.89
59272;BME280;45043;51.068;7.026;2022-07-23T05:51:26;100677.63;;;14.49;64.85
59272;BME280;45043;51.068;7.026;2022-07-23T05:54:27;100685.59;;;14.63;64.78
59272;BME280;45043;51.068;7.026;2022-07-23T05:57:28;100694.38;;;14.70;64.65
59272;BME280;45043;51.068;7.026;2022-07-23T06:00:29;100697.44;;;14.73;64.47
59272;BME280;45043;51.068;7.026;2022-07-23T06:03:30;100690.44;;;14.72;64.75
59272;BME280;45043;51.068;7.026;2022-07-23T06:06:31;100697.06;;;14.70;64.49
59272;BME280;45043;51.068;7.026;2022-07-23T06:09:31;100703.16;;;14.77;64.59
59272;BME280;45043;51.068;7.026;2022-07-23T06:12:32;100699.06;;;14.74;64.91
59272;BME280;45043;51.068;7.026;2022-07-23T06:15:32;100700.03;;;14.80;64.36
59272;BME280;45043;51.068;7.026;2022-07-23T06:18:33;100701.47;;;14.82;64.39
59272;BME280;45043;51.068;7.026;2022-07-23T06:21:33;100705.75;;;14.83;64.97
59272;BME280;45043;51.068;7.026;2022-07-23T06:24:34;100705.50;;;14.92;64.52
59272;BME280;45043;51.068;7.026;2022-07-23T06:27:34;100712.00;;;15.02;65.01
59272;BME280;45043;51.068;7.026;2022-07-23T06:30:35;100705.53;;;15.10;64.34
59272;BME280;45043;51.068;7.026;2022-07-23T06:33:37;100706.81;;;15.26;64.05
59272;BME280;45043;51.068;7.026;2022-07-23T06:36:37;100709.63;;;15.31;63.62
59272;BME280;45043;51.068;7.026;2022-07-23T06:39:39;100709.63;;;15.31;63.19
59272;BME280;45043;51.068;7.026;2022-07-23T06:42:40;100706.22;;;15.42;63.67
59272;BME280;45043;51.068;7.026;2022-07-23T06:45:41;100712.34;;;15.49;63.27
59272;BME280;45043;51.068;7.026;2022-07-23T06:48:41;100712.38;;;15.43;61.57
59272;BME280;45043;51.068;7.026;2022-07-23T06:51:42;100713.06;;;15.38;61.56
59272;BME280;45043;51.068;7.026;2022-07-23T06:54:42;100712.38;;;15.43;61.29
59272;BME280;45043;51.068;7.026;2022-07-23T06:57:42;100713.97;;;15.50;61.44
59272;BME280;45043;51.068;7.026;2022-07-23T07:00:43;100719.13;;;15.52;61.32
59272;BME280;45043;51.068;7.026;2022-07-23T07:03:43;100714.16;;;15.56;61.37
59272;BME280;45043;51.068;7.026;2022-07-23T07:06:44;100720.81;;;15.65;61.52
59272;BME280;45043;51.068;7.026;2022-07-23T07:09:44;100719.06;;;15.77;61.53
59272;BME280;45043;51.068;7.026;2022-07-23T07:12:45;100726.78;;;15.85;61.30
59272;BME280;45043;51.068;7.026;2022-07-23T07:15:45;100712.50;;;15.91;60.69
59272;BME280;45043;51.068;7.026;2022-07-23T07:18:46;100720.69;;;16.08;59.74
59272;BME280;45043;51.068;7.026;2022-07-23T07:21:46;100729.72;;;16.14;60.14
59272;BME280;45043;51.068;7.026;2022-07-23T07:24:46;100725.16;;;16.14;59.96
59272;BME280;45043;51.068;7.026;2022-07-23T07:27:47;100729.50;;;16.27;59.29
59272;BME280;45043;51.068;7.026;2022-07-23T07:30:47;100739.28;;;16.40;58.64
59272;BME280;45043;51.068;7.026;2022-07-23T07:33:48;100737.78;;;16.56;58.04
59272;BME280;45043;51.068;7.026;2022-07-23T07:36:48;100743.78;;;16.69;57.82
59272;BME280;45043;51.068;7.026;2022-07-23T07:39:50;100734.31;;;16.67;57.45
59272;BME280;45043;51.068;7.026;2022-07-23T07:42:52;100749.81;;;16.77;57.45
59272;BME280;45043;51.068;7.026;2022-07-23T07:45:53;100753.47;;;16.82;57.52
59272;BME280;45043;51.068;7.026;2022-07-23T07:48:54;100752.88;;;16.80;57.76
59272;BME280;45043;51.068;7.026;2022-07-23T07:51:54;100747.75;;;16.79;56.94
59272;BME280;45043;51.068;7.026;2022-07-23T07:54:54;100753.47;;;16.82;57.25
59272;BME280;45043;51.068;7.026;2022-07-23T07:57:55;100762.78;;;16.91;57.14
59272;BME280;45043;51.068;7.026;2022-07-23T08:00:55;100756.97;;;16.83;56.27
59272;BME280;45043;51.068;7.026;2022-07-23T08:03:56;100755.19;;;16.77;55.97
59272;BME280;45043;51.068;7.026;2022-07-23T08:06:56;100758.72;;;16.77;55.50
59272;BME280;45043;51.068;7.026;2022-07-23T08:09:57;100764.56;;;16.86;55.18
59272;BME280;45043;51.068;7.026;2022-07-23T08:12:58;100763.50;;;16.98;54.90
59272;BME280;45043;51.068;7.026;2022-07-23T08:16:00;100774.50;;;17.09;55.32
59272;BME280;45043;51.068;7.026;2022-07-23T08:19:01;100757.03;;;17.18;54.75
59272;BME280;45043;51.068;7.026;2022-07-23T08:22:02;100770.69;;;17.40;54.10
59272;BME280;45043;51.068;7.026;2022-07-23T08:25:02;100773.00;;;17.48;53.01
59272;BME280;45043;51.068;7.026;2022-07-23T08:28:04;100775.44;;;17.50;53.08
59272;BME280;45043;51.068;7.026;2022-07-23T08:31:05;100780.13;;;17.42;51.91
59272;BME280;45043;51.068;7.026;2022-07-23T08:34:06;100775.81;;;17.41;52.18
59272;BME280;45043;51.068;7.026;2022-07-23T08:37:06;100781.19;;;17.41;51.97
59272;BME280;45043;51.068;7.026;2022-07-23T08:40:07;100776.63;;;17.42;50.94
59272;BME280;45043;51.068;7.026;2022-07-23T08:43:10;100777.41;;;17.54;52.21
59272;BME280;45043;51.068;7.026;2022-07-23T08:46:12;100777.44;;;17.66;50.92
59272;BME280;45043;51.068;7.026;2022-07-23T08:49:13;100781.75;;;17.67;51.69
59272;BME280;45043;51.068;7.026;2022-07-23T08:52:14;100782.31;;;17.81;51.37
59272;BME280;45043;51.068;7.026;2022-07-23T08:55:21;100792.25;;;17.92;50.02
59272;BME280;45043;51.068;7.026;2022-07-23T08:58:22;100788.25;;;17.94;49.93
59272;BME280;45043;51.068;7.026;2022-07-23T09:01:23;100787.31;;;18.01;49.73
59272;BME280;45043;51.068;7.026;2022-07-23T09:04:23;100792.88;;;18.11;49.47
59272;BME280;45043;51.068;7.026;2022-07-23T09:07:24;100809.38;;;18.14;49.52
59272;BME280;45043;51.068;7.026;2022-07-23T09:10:24;100798.66;;;18.03;49.26
59272;BME280;45043;51.068;7.026;2022-07-23T09:16:31;100790.91;;;18.06;49.51
59272;BME280;45043;51.068;7.026;2022-07-23T09:19:32;100795.06;;;18.26;49.19
59272;BME280;45043;51.068;7.026;2022-07-23T09:22:32;100800.78;;;18.29;49.72
59272;BME280;45043;51.068;7.026;2022-07-23T09:25:33;100804.03;;;18.31;49.82
59272;BME280;45043;51.068;7.026;2022-07-23T09:28:49;100797.50;;;18.27;49.20
59272;BME280;45043;51.068;7.026;2022-07-23T09:31:57;100794.91;;;18.32;48.20
59272;BME280;45043;51.068;7.026;2022-07-23T09:34:58;100804.16;;;18.36;48.18
59272;BME280;45043;51.068;7.026;2022-07-23T09:38:02;100801.53;;;18.41;46.96
59272;BME280;45043;51.068;7.026;2022-07-23T09:41:09;100816.13;;;18.46;47.51
59272;BME280;45043;51.068;7.026;2022-07-23T09:44:13;100814.84;;;18.48;47.83
59272;BME280;45043;51.068;7.026;2022-07-23T09:47:15;100811.03;;;18.61;47.91
59272;BME280;45043;51.068;7.026;2022-07-23T09:50:19;100803.03;;;18.78;47.69
59272;BME280;45043;51.068;7.026;2022-07-23T09:53:24;100810.22;;;18.89;47.45
59272;BME280;45043;51.068;7.026;2022-07-23T09:56:27;100810.53;;;18.93;47.29
59272;BME280;45043;51.068;7.026;2022-07-23T09:59:35;100803.69;;;19.02;47.08
59272;BME280;45043;51.068;7.026;2022-07-23T10:02:36;100813.13;;;19.21;47.59
59272;BME280;45043;51.068;7.026;2022-07-23T10:05:56;100816.31;;;19.35;45.86
59272;BME280;45043;51.068;7.026;2022-07-23T10:09:02;100806.78;;;19.27;44.98
59272;BME280;45043;51.068;7.026;2022-07-23T10:12:26;100806.69;;;19.22;45.66
59272;BME280;45043;51.068;7.026;2022-07-23T10:15:34;100799.91;;;19.36;44.78
59272;BME280;45043;51.068;7.026;2022-07-23T10:18:35;100796.13;;;19.54;44.95
59272;BME280;45043;51.068;7.026;2022-07-23T10:21:47;100797.19;;;19.70;45.18
59272;BME280;45043;51.068;7.026;2022-07-23T10:25:08;100783.69;;;19.70;44.34
59272;BME280;45043;51.068;7.026;2022-07-23T10:28:28;100786.31;;;19.87;44.71
59272;BME280;45043;51.068;7.026;2022-07-23T10:31:52;100783.41;;;19.89;43.24
59272;BME280;45043;51.068;7.026;2022-07-23T10:41:09;100798.63;;;19.78;42.33
59272;BME280;45043;51.068;7.026;2022-07-23T10:44:16;100785.56;;;19.92;42.20
59272;BME280;45043;51.068;7.026;2022-07-23T10:47:35;100781.69;;;20.04;41.78
59272;BME280;45043;51.068;7.026;2022-07-23T10:50:43;100783.06;;;20.29;42.13
59272;BME280;45043;51.068;7.026;2022-07-23T10:53:57;100774.44;;;20.32;41.42
59272;BME280;45043;51.068;7.026;2022-07-23T11:03:29;100775.00;;;20.61;40.95
59272;BME280;45043;51.068;7.026;2022-07-23T11:09:48;100778.97;;;20.80;40.13
59272;BME280;45043;51.068;7.026;2022-07-23T11:12:49;100773.50;;;20.75;39.54
59272;BME280;45043;51.068;7.026;2022-07-23T11:19:05;100768.81;;;20.93;39.64
59272;BME280;45043;51.068;7.026;2022-07-23T11:22:06;100772.53;;;20.81;40.19
59272;BME280;45043;51.068;7.026;2022-07-23T11:25:06;100769.44;;;20.73;39.97
59272;BME280;45043;51.068;7.026;2022-07-23T11:28:17;100769.84;;;20.87;40.49
59272;BME280;45043;51.068;7.026;2022-07-23T11:31:21;100765.41;;;21.08;40.20
59272;BME280;45043;51.068;7.026;2022-07-23T11:34:33;100763.63;;;21.23;39.99
59272;BME280;45043;51.068;7.026;2022-07-23T11:37:39;100764.75;;;21.33;38.52
59272;BME280;45043;51.068;7.026;2022-07-23T11:40:41;100766.84;;;21.20;38.00
59272;BME280;45043;51.068;7.026;2022-07-23T11:43:41;100766.34;;;21.23;37.89
59272;BME280;45043;51.068;7.026;2022-07-23T11:46:54;100762.03;;;21.27;36.78
59272;BME280;45043;51.068;7.026;2022-07-23T11:50:00;100757.22;;;21.40;37.31
59272;BME280;45043;51.068;7.026;2022-07-23T11:53:02;100754.78;;;21.38;36.55
59272;BME280;45043;51.068;7.026;2022-07-23T11:56:08;100759.16;;;21.44;36.44
59272;BME280;45043;51.068;7.026;2022-07-23T11:59:09;100759.97;;;21.45;36.85
59272;BME280;45043;51.068;7.026;2022-07-23T12:02:09;100763.31;;;21.57;36.27
59272;BME280;45043;51.068;7.026;2022-07-23T12:05:18;100763.31;;;21.57;36.06
59272;BME280;45043;51.068;7.026;2022-07-23T12:08:19;100762.19;;;21.53;36.33
59272;BME280;45043;51.068;7.026;2022-07-23T12:11:19;100761.94;;;21.54;35.91
59272;BME280;45043;51.068;7.026;2022-07-23T12:14:20;100768.16;;;21.55;35.44
59272;BME280;45043;51.068;7.026;2022-07-23T12:17:21;100757.91;;;21.57;36.66
59272;BME280;45043;51.068;7.026;2022-07-23T12:20:30;100761.69;;;21.61;34.85
59272;BME280;45043;51.068;7.026;2022-07-23T12:23:31;100757.97;;;21.72;35.61
59272;BME280;45043;51.068;7.026;2022-07-23T12:26:32;100756.41;;;21.87;35.45
59272;BME280;45043;51.068;7.026;2022-07-23T12:29:35;100753.19;;;22.00;35.18
59272;BME280;45043;51.068;7.026;2022-07-23T12:32:43;100755.34;;;21.98;35.29
59272;BME280;45043;51.068;7.026;2022-07-23T12:35:46;100755.38;;;22.08;35.26
59272;BME280;45043;51.068;7.026;2022-07-23T12:38:48;100751.31;;;22.06;35.05
59272;BME280;45043;51.068;7.026;2022-07-23T12:41:52;100757.53;;;22.01;35.95
59272;BME280;45043;51.068;7.026;2022-07-23T12:45:04;100754.81;;;21.96;35.05
59272;BME280;45043;51.068;7.026;2022-07-23T12:48:05;100767.56;;;22.11;36.18
59272;BME280;45043;51.068;7.026;2022-07-23T12:54:40;100766.50;;;22.17;36.58
59272;BME280;45043;51.068;7.026;2022-07-23T12:57:47;100767.31;;;22.17;36.63
59272;BME280;45043;51.068;7.026;2022-07-23T13:04:11;100770.47;;;21.89;37.12
59272;BME280;45043;51.068;7.026;2022-07-23T13:07:12;100767.50;;;21.95;36.36
59272;BME280;45043;51.068;7.026;2022-07-23T13:10:12;100762.09;;;21.90;36.55
59272;BME280;45043;51.068;7.026;2022-07-23T13:13:13;100777.00;;;22.03;36.88
59272;BME280;45043;51.068;7.026;2022-07-23T13:16:14;100767.00;;;22.03;36.56
59272;BME280;45043;51.068;7.026;2022-07-23T13:19:15;100782.44;;;22.08;35.23
59272;BME280;45043;51.068;7.026;2022-07-23T13:22:16;100770.34;;;22.26;36.27
59272;BME280;45043;51.068;7.026;2022-07-23T13:25:16;100767.13;;;22.44;34.96
59272;BME280;45043;51.068;7.026;2022-07-23T13:28:18;100780.13;;;22.58;35.03
59272;BME280;45043;51.068;7.026;2022-07-23T13:31:18;100777.13;;;22.34;35.54
59272;BME280;45043;51.068;7.026;2022-07-23T13:34:19;100763.00;;;22.21;35.67
59272;BME280;45043;51.068;7.026;2022-07-23T13:37:20;100777.09;;;22.29;35.75
59272;BME280;45043;51.068;7.026;2022-07-23T13:40:20;100773.31;;;22.30;35.27
59272;BME280;45043;51.068;7.026;2022-07-23T13:43:23;100774.09;;;22.25;35.60
59272;BME280;45043;51.068;7.026;2022-07-23T13:46:24;100764.66;;;22.22;35.85
59272;BME280;45043;51.068;7.026;2022-07-23T13:49:24;100756.53;;;22.33;35.61
59272;BME280;45043;51.068;7.026;2022-07-23T13:52:25;100762.22;;;22.31;34.59
59272;BME280;45043;51.068;7.026;2022-07-23T13:55:25;100749.78;;;22.35;33.77
59272;BME280;45043;51.068;7.026;2022-07-23T13:58:26;100746.78;;;22.32;33.92
59272;BME280;45043;51.068;7.026;2022-07-23T14:01:27;100762.22;;;22.31;34.14
59272;BME280;45043;51.068;7.026;2022-07-23T14:04:28;100753.31;;;22.41;34.11
59272;BME280;45043;51.068;7.026;2022-07-23T14:07:28;100752.22;;;22.57;33.96
59272;BME280;45043;51.068;7.026;2022-07-23T14:10:29;100737.88;;;22.67;33.79
59272;BME280;45043;51.068;7.026;2022-07-23T14:13:29;100749.56;;;22.78;34.02
59272;BME280;45043;51.068;7.026;2022-07-23T14:16:30;100734.13;;;22.78;33.65
59272;BME280;45043;51.068;7.026;2022-07-23T14:19:30;100757.69;;;22.93;32.66
59272;BME280;45043;51.068;7.026;2022-07-23T14:22:31;100749.53;;;22.88;32.99
59272;BME280;45043;51.068;7.026;2022-07-23T14:25:31;100758.50;;;22.93;32.78
59272;BME280;45043;51.068;7.026;2022-07-23T14:28:33;100742.50;;;23.07;32.67
59272;BME280;45043;51.068;7.026;2022-07-23T14:31:37;100750.59;;;23.22;32.60
59272;BME280;45043;51.068;7.026;2022-07-23T14:34:38;100753.56;;;23.16;32.39
59272;BME280;45043;51.068;7.026;2022-07-23T14:37:39;100746.00;;;22.97;32.98
59272;BME280;45043;51.068;7.026;2022-07-23T14:40:40;100745.75;;;22.94;32.91
59272;BME280;45043;51.068;7.026;2022-07-23T14:43:40;100737.63;;;23.04;32.61
59272;BME280;45043;51.068;7.026;2022-07-23T14:46:42;100748.41;;;23.14;32.74
59272;BME280;45043;51.068;7.026;2022-07-23T14:49:43;100731.38;;;23.09;32.35
59272;BME280;45043;51.068;7.026;2022-07-23T14:52:43;100734.09;;;22.93;32.63
59272;BME280;45043;51.068;7.026;2022-07-23T14:55:44;100738.72;;;22.83;33.61
59272;BME280;45043;51.068;7.026;2022-07-23T14:58:44;100729.50;;;22.89;32.40
59272;BME280;45043;51.068;7.026;2022-07-23T15:01:45;100725.69;;;23.00;32.46
59272;BME280;45043;51.068;7.026;2022-07-23T15:04:45;100732.19;;;22.99;32.93
59272;BME280;45043;51.068;7.026;2022-07-23T15:07:51;100724.59;;;23.06;32.49
59272;BME280;45043;51.068;7.026;2022-07-23T15:10:51;100726.19;;;23.17;32.68
59272;BME280;45043;51.068;7.026;2022-07-23T15:13:52;100723.47;;;23.28;31.98
59272;BME280;45043;51.068;7.026;2022-07-23T15:16:52;100726.16;;;23.28;32.33
59272;BME280;45043;51.068;7.026;2022-07-23T15:19:53;100735.91;;;23.34;32.27
59272;BME280;45043;51.068;7.026;2022-07-23T15:22:53;100727.25;;;23.27;32.14
59272;BME280;45043;51.068;7.026;2022-07-23T15:25:55;100728.91;;;23.22;31.66
59272;BME280;45043;51.068;7.026;2022-07-23T15:28:56;100719.66;;;23.34;31.99
59272;BME280;45043;51.068;7.026;2022-07-23T15:31:58;100717.97;;;23.53;32.04
59272;BME280;45043;51.068;7.026;2022-07-23T15:34:59;100716.28;;;23.62;32.34
59272;BME280;45043;51.068;7.026;2022-07-23T15:38:00;100718.97;;;23.78;32.70
59272;BME280;45043;51.068;7.026;2022-07-23T15:41:01;100718.31;;;23.91;32.95
59272;BME280;45043;51.068;7.026;2022-07-23T15:44:04;100727.53;;;23.95;31.65
59272;BME280;45043;51.068;7.026;2022-07-23T15:47:11;100721.09;;;23.86;31.68
59272;BME280;45043;51.068;7.026;2022-07-23T15:50:12;100718.97;;;23.78;31.71
59272;BME280;45043;51.068;7.026;2022-07-23T15:53:12;100733.34;;;23.73;31.86
59272;BME280;45043;51.068;7.026;2022-07-23T15:56:13;100726.63;;;23.60;32.32
59272;BME280;45043;51.068;7.026;2022-07-23T15:59:13;100710.72;;;23.38;32.15
59272;BME280;45043;51.068;7.026;2022-07-23T16:02:14;100725.63;;;23.41;32.64
59272;BME280;45043;51.068;7.026;2022-07-23T16:05:15;100722.06;;;23.35;32.85
59272;BME280;45043;51.068;7.026;2022-07-23T16:08:16;100720.72;;;23.43;32.90
59272;BME280;45043;51.068;7.026;2022-07-23T16:11:16;100715.78;;;23.55;32.19
59272;BME280;45043;51.068;7.026;2022-07-23T16:14:17;100719.88;;;23.48;32.58
59272;BME280;45043;51.068;7.026;2022-07-23T16:17:17;100709.88;;;23.43;32.45
59272;BME280;45043;51.068;7.026;2022-07-23T16:20:18;100712.28;;;23.50;31.93